createdAt,value
2023-04-22T00:00:33.495Z,51.82
2023-04-22T00:10:59.967Z,51.62
2023-04-22T00:21:25.432Z,51.62
2023-04-22T00:31:51.672Z,51.61
2023-04-22T00:42:18.455Z,51.80
2023-04-22T00:52:44.505Z,51.80
2023-04-22T01:03:11.355Z,51.57
2023-04-22T01:13:38.544Z,51.68
2023-04-22T01:24:04.802Z,52.14
2023-04-22T01:34:31.530Z,52.33
2023-04-22T01:44:57.335Z,52.55
2023-04-22T01:55:23.630Z,52.64
2023-04-22T02:05:49.306Z,53.27
2023-04-22T02:16:14.926Z,52.85
2023-04-22T02:26:41.591Z,52.88
2023-04-22T02:37:16.124Z,53.34
2023-04-22T02:47:42.159Z,53.54
2023-04-22T02:58:09.044Z,53.69
2023-04-22T03:08:34.885Z,53.40
2023-04-22T03:19:02.363Z,53.59
2023-04-22T03:29:27.960Z,53.54
2023-04-22T03:39:53.429Z,54.09
2023-04-22T03:50:19.100Z,54.45
2023-04-22T04:00:44.589Z,54.57
2023-04-22T04:11:11.880Z,54.23
2023-04-22T04:21:38.053Z,54.63
2023-04-22T04:32:04.797Z,54.81
2023-04-22T04:42:33.698Z,54.93
2023-04-22T04:52:59.183Z,55.06
2023-04-22T05:03:25.298Z,55.07
2023-04-22T05:13:51.079Z,56.32
2023-04-22T05:24:16.686Z,56.48
2023-04-22T05:34:42.512Z,56.81
2023-04-22T05:45:10.393Z,56.72
2023-04-22T05:55:36.343Z,56.54
2023-04-22T06:06:02.076Z,56.09
2023-04-22T06:16:27.798Z,54.91
2023-04-22T06:26:53.670Z,53.58
2023-04-22T06:37:19.484Z,52.78
2023-04-22T06:47:45.581Z,51.53
2023-04-22T06:58:11.295Z,49.71
2023-04-22T07:08:37.872Z,48.83
2023-04-22T07:19:04.907Z,47.74
2023-04-22T07:29:31.385Z,46.00
2023-04-22T07:39:57.663Z,44.90
2023-04-22T07:50:23.656Z,43.26
2023-04-22T08:00:49.671Z,42.69
2023-04-22T08:11:15.847Z,41.34
2023-04-22T08:21:41.283Z,40.07
2023-04-22T08:32:07.747Z,38.82
2023-04-22T08:42:34.318Z,37.11
2023-04-22T08:53:00.453Z,35.74
2023-04-22T09:03:27.079Z,35.39
2023-04-22T09:13:54.579Z,35.70
2023-04-22T09:24:21.972Z,34.97
2023-04-22T09:34:55.534Z,34.57
2023-04-22T09:45:30.910Z,34.86
2023-04-22T09:55:57.025Z,34.10
2023-04-22T10:06:23.795Z,33.55
2023-04-22T10:16:51.689Z,33.62
2023-04-22T10:27:23.534Z,32.71
2023-04-22T10:37:49.748Z,33.01
2023-04-22T10:48:15.918Z,32.69
2023-04-22T10:58:42.075Z,32.23
2023-04-22T11:09:13.724Z,31.49
2023-04-22T11:19:39.792Z,31.24
2023-04-22T11:30:08.773Z,31.35
2023-04-22T11:40:38.569Z,31.00
2023-04-22T11:51:13.088Z,30.80
2023-04-22T12:01:38.827Z,30.86
2023-04-22T12:12:06.238Z,31.05
2023-04-22T12:22:33.681Z,31.16
2023-04-22T12:32:58.283Z,30.90
2023-04-22T12:43:24.176Z,30.77
2023-04-22T12:53:49.703Z,31.03
2023-04-22T13:04:15.854Z,31.18
2023-04-22T13:14:42.290Z,31.74
2023-04-22T13:25:09.958Z,32.63
2023-04-22T13:35:36.591Z,32.24
2023-04-22T13:46:02.666Z,31.43
2023-04-22T13:56:28.897Z,30.82
2023-04-22T14:06:54.693Z,31.32
2023-04-22T14:17:22.255Z,31.63
2023-04-22T14:27:48.074Z,31.65
2023-04-22T14:38:14.559Z,31.71
2023-04-22T14:48:40.507Z,31.50
2023-04-22T14:59:06.749Z,31.71
2023-04-22T15:09:33.028Z,31.95
2023-04-22T15:19:59.081Z,31.94
2023-04-22T15:30:25.484Z,31.64
2023-04-22T15:40:51.019Z,31.50
2023-04-22T15:51:17.581Z,31.19
2023-04-22T16:01:45.796Z,31.22
2023-04-22T16:12:11.960Z,31.22
2023-04-22T16:22:38.329Z,31.74
2023-04-22T16:33:04.210Z,31.99
2023-04-22T16:43:30.100Z,32.29
2023-04-22T16:53:56.164Z,33.00
2023-04-22T17:04:25.056Z,33.22
2023-04-22T17:14:51.116Z,33.73
2023-04-22T17:25:16.594Z,33.93
2023-04-22T17:35:42.682Z,34.31
2023-04-22T17:46:09.502Z,35.39
2023-04-22T17:56:35.703Z,36.47
2023-04-22T18:07:01.668Z,36.82
2023-04-22T18:17:27.423Z,37.88
2023-04-22T18:27:55.429Z,39.46
2023-04-22T18:38:20.936Z,40.28
2023-04-22T18:48:46.892Z,40.46
2023-04-22T18:59:12.997Z,41.65
2023-04-22T19:09:38.871Z,41.76
2023-04-22T19:20:06.051Z,42.86
2023-04-22T19:30:31.759Z,43.10
2023-04-22T19:40:58.075Z,42.93
2023-04-22T19:51:24.213Z,42.92
2023-04-22T20:01:51.234Z,43.24
2023-04-22T20:12:17.034Z,45.28
2023-04-22T20:22:45.792Z,45.37
2023-04-22T20:33:16.657Z,46.35
2023-04-22T20:43:44.116Z,47.39
2023-04-22T20:54:21.640Z,48.04
2023-04-22T21:04:54.052Z,48.48
2023-04-22T21:15:21.413Z,48.80
2023-04-22T21:25:49.655Z,48.87
2023-04-22T21:36:15.636Z,49.36
2023-04-22T21:46:41.242Z,49.70
2023-04-22T21:57:07.040Z,49.49
2023-04-22T22:07:34.553Z,49.79
2023-04-22T22:18:00.258Z,49.95
2023-04-22T22:28:25.717Z,50.15
2023-04-22T22:38:51.120Z,50.38
2023-04-22T22:49:17.203Z,50.48
2023-04-22T22:59:44.628Z,51.16
2023-04-22T23:10:12.026Z,51.22
2023-04-22T23:20:38.423Z,51.04
2023-04-22T23:31:07.881Z,51.15
2023-04-22T23:41:33.692Z,51.42
2023-04-22T23:51:59.928Z,51.53
